^^
Station Historical Data
Daily Summary for Nil La, TWC- Units:  English    Metric   Both
« Previous Day
Next Day »
Daily Weekly Monthly Yearly Custom
  High: Low: Average:
Temperature: TemperatureF °F 66.2 °F 73.1 °F
Dew Point: DewpointF °F 46.8 °F 49.2 °F
Humidity: Humidity% 31% 43%
Wind Speed: WindSpeedMPHmph 0.0mph 8.4mph
Wind Gust: WindSpeedGustMPHmph - -
Wind- - SE
Pressure: PressureIn in 29.53 in -
Precipitation: 0.00 in    
Historical Graphs
 
 
Tabular Data for Nil La, TWC-
Time Temperature Dew Point Pressure Wind Wind Speed Wind Gust Humidity Rainfall Rate (Hourly) solar Conditions
TemperatureF °F DewpointF °F PressureIn in Calm     Humidity% HourlyPrecipIn in SoftwareType W/m2 Conditions
08:15 66.2 °F 54.5 °F 29.53 in ENE 2.9 mph 4.0 mph 66% 0.00 in meteobridge W/m2
08:21 66.9 °F 54.0 °F 29.53 in NE 4.0 mph 6.0 mph 63% 0.00 in meteobridge W/m2
08:27 66.9 °F 54.0 °F 29.53 in NE 4.9 mph 6.0 mph 63% 0.00 in meteobridge W/m2
08:33 66.9 °F 53.4 °F 29.54 in NE 4.0 mph 6.0 mph 62% 0.00 in meteobridge W/m2
08:39 67.1 °F 53.6 °F 29.54 in NNE 2.0 mph 6.0 mph 62% 0.00 in meteobridge W/m2
08:45 67.8 °F 54.0 °F 29.54 in North 6.9 mph 10.0 mph 61% 0.00 in meteobridge W/m2
08:51 67.8 °F 53.4 °F 29.54 in North 4.9 mph 9.0 mph 60% 0.00 in meteobridge W/m2
08:57 68.0 °F 53.6 °F 29.54 in NE 4.0 mph 6.0 mph 60% 0.00 in meteobridge W/m2
09:03 69.3 °F 53.8 °F 29.54 in NNE 4.9 mph 7.0 mph 58% 0.00 in meteobridge W/m2
09:09 69.6 °F 53.8 °F 29.54 in North 2.9 mph 4.0 mph 57% 0.00 in meteobridge W/m2
09:16 70.5 °F 53.6 °F 29.55 in NNE 2.0 mph 2.0 mph 55% 0.00 in meteobridge W/m2
09:22 71.8 °F 54.3 °F 29.55 in Calm   3.0 mph 54% 0.00 in meteobridge W/m2
09:28 73.0 °F 53.2 °F 29.55 in NNE 4.0 mph 8.0 mph 50% 0.00 in meteobridge W/m2
09:34 73.6 °F 52.2 °F 29.55 in NNE 4.0 mph 8.0 mph 47% 0.00 in meteobridge W/m2
09:40 73.9 °F 51.3 °F 29.55 in NNW 6.0 mph 11.0 mph 45% 0.00 in meteobridge W/m2
09:46 74.1 °F 52.5 °F 29.55 in North 8.1 mph 10.0 mph 47% 0.00 in meteobridge W/m2
09:52 74.7 °F 53.1 °F 29.56 in North 8.9 mph 9.0 mph 47% 0.00 in meteobridge W/m2
09:58 75.4 °F 52.5 °F 29.55 in NNE 4.0 mph 7.0 mph 45% 0.00 in meteobridge W/m2
10:05 75.6 °F 52.2 °F 29.55 in North 10.1 mph 11.0 mph 44% 0.00 in meteobridge W/m2
10:11 76.3 °F 52.7 °F 29.55 in NE 8.1 mph 13.0 mph 44% 0.00 in meteobridge W/m2
10:17 76.5 °F 51.6 °F 29.56 in North 12.1 mph 15.0 mph 42% 0.00 in meteobridge W/m2
10:23 76.5 °F 49.6 °F 29.56 in North 13.0 mph 18.0 mph 39% 0.00 in meteobridge W/m2
10:29 76.8 °F 47.8 °F 29.56 in North 8.9 mph 18.0 mph 36% 0.00 in meteobridge W/m2
10:35 77.2 °F 47.5 °F 29.56 in North 15.0 mph 18.0 mph 35% 0.00 in meteobridge W/m2
10:41 77.5 °F 46.9 °F 29.56 in North 15.0 mph 20.0 mph 34% 0.00 in meteobridge W/m2
10:47 77.4 °F 46.8 °F 29.56 in NNW 4.9 mph 19.0 mph 34% 0.00 in meteobridge W/m2
10:53 77.4 °F 46.8 °F 29.56 in NNE 13.0 mph 19.0 mph 34% 0.00 in meteobridge W/m2
11:00 77.5 °F 47.7 °F 29.56 in NNW 11.0 mph 14.0 mph 35% 0.00 in meteobridge W/m2
11:06 77.9 °F 47.3 °F 29.56 in NNW 13.0 mph 19.0 mph 34% 0.00 in meteobridge W/m2
11:12 78.3 °F 47.7 °F 29.56 in NNE 10.1 mph 16.0 mph 34% 0.00 in meteobridge W/m2
11:18 78.3 °F 47.7 °F 29.56 in North 14.1 mph 22.0 mph 34% 0.00 in meteobridge W/m2
11:24 78.3 °F 47.7 °F 29.56 in North 14.1 mph 18.0 mph 34% 0.00 in meteobridge W/m2
11:30 78.6 °F 47.1 °F 29.56 in NNE 17.0 mph 22.0 mph 33% 0.00 in meteobridge W/m2
11:36 78.6 °F 47.8 °F 29.55 in North 12.1 mph 16.0 mph 34% 0.00 in meteobridge W/m2
11:43 79.0 °F 47.5 °F 29.55 in NNW 10.1 mph 20.0 mph 33% 0.00 in meteobridge W/m2
11:49 79.3 °F 46.9 °F 29.55 in NNE 8.9 mph 20.0 mph 32% 0.00 in meteobridge W/m2
11:55 80.2 °F 47.7 °F 29.55 in North 8.1 mph 18.0 mph 32% 0.00 in meteobridge W/m2
12:01 80.1 °F 47.5 °F 29.55 in North 13.0 mph 17.0 mph 32% 0.00 in meteobridge W/m2
12:07 79.9 °F 47.3 °F 29.55 in North 15.0 mph 18.0 mph 32% 0.00 in meteobridge W/m2
12:13 80.1 °F 47.5 °F 29.54 in North 8.9 mph 15.0 mph 32% 0.00 in meteobridge W/m2
12:20 80.2 °F 46.9 °F 29.54 in NNW 13.0 mph 18.0 mph 31% 0.00 in meteobridge W/m2
12:26 80.6 °F 47.1 °F 29.54 in North 14.1 mph 17.0 mph 31% 0.00 in meteobridge W/m2
Regenstein, Windhoek, Namibia
Compliments of Weather Underground - 2 mb